sensor_id;sensor_type;location;lat;lon;timestamp;pressure;altitude;pressure_sealevel;temperature;humidity
42111;BME280;27766;52.174;5.456;2022-08-25T00:02:05;101645.94;;;21.91;nan
42111;BME280;27766;52.174;5.456;2022-08-25T00:04:34;101649.50;;;21.88;nan
42111;BME280;27766;52.174;5.456;2022-08-25T00:07:03;101641.69;;;21.82;nan
42111;BME280;27766;52.174;5.456;2022-08-25T00:09:34;101646.16;;;21.78;nan
42111;BME280;27766;52.174;5.456;2022-08-25T00:12:03;101648.81;;;21.75;nan
42111;BME280;27766;52.174;5.456;2022-08-25T00:14:34;101638.34;;;21.71;nan
42111;BME280;27766;52.174;5.456;2022-08-25T00:17:04;101640.16;;;21.67;nan
42111;BME280;27766;52.174;5.456;2022-08-25T00:19:34;101645.41;;;21.69;nan
42111;BME280;27766;52.174;5.456;2022-08-25T00:22:03;101638.41;;;21.68;nan
42111;BME280;27766;52.174;5.456;2022-08-25T00:24:30;101630.50;;;21.66;nan
42111;BME280;27766;52.174;5.456;2022-08-25T00:27:01;101622.69;;;21.61;nan
42111;BME280;27766;52.174;5.456;2022-08-25T00:29:30;101624.50;;;21.59;nan
42111;BME280;27766;52.174;5.456;2022-08-25T00:31:59;101627.91;;;21.64;nan
42111;BME280;27766;52.174;5.456;2022-08-25T00:34:32;101623.56;;;21.62;nan
42111;BME280;27766;52.174;5.456;2022-08-25T00:37:02;101630.63;;;21.60;nan
42111;BME280;27766;52.174;5.456;2022-08-25T00:39:30;101627.16;;;21.55;nan
42111;BME280;27766;52.174;5.456;2022-08-25T00:41:57;101635.09;;;21.51;nan
42111;BME280;27766;52.174;5.456;2022-08-25T00:44:30;101643.94;;;21.47;nan
42111;BME280;27766;52.174;5.456;2022-08-25T00:47:00;101635.22;;;21.42;nan
42111;BME280;27766;52.174;5.456;2022-08-25T00:49:48;101642.31;;;21.39;nan
42111;BME280;27766;52.174;5.456;2022-08-25T00:52:21;101637.13;;;21.34;nan
42111;BME280;27766;52.174;5.456;2022-08-25T00:55:04;101633.66;;;21.29;nan
42111;BME280;27766;52.174;5.456;2022-08-25T00:57:40;101631.13;;;21.23;nan
42111;BME280;27766;52.174;5.456;2022-08-25T01:00:36;101631.22;;;21.16;nan
42111;BME280;27766;52.174;5.456;2022-08-25T01:03:05;101633.00;;;21.14;nan
42111;BME280;27766;52.174;5.456;2022-08-25T01:05:32;101632.13;;;21.12;nan
42111;BME280;27766;52.174;5.456;2022-08-25T01:08:00;101627.84;;;21.05;nan
42111;BME280;27766;52.174;5.456;2022-08-25T01:10:35;101627.91;;;21.02;nan
42111;BME280;27766;52.174;5.456;2022-08-25T01:13:13;101631.47;;;20.99;nan
42111;BME280;27766;52.174;5.456;2022-08-25T01:15:45;101625.38;;;20.94;nan
42111;BME280;27766;52.174;5.456;2022-08-25T01:18:14;101628.88;;;20.93;nan
42111;BME280;27766;52.174;5.456;2022-08-25T01:20:41;101614.09;;;20.84;nan
42111;BME280;27766;52.174;5.456;2022-08-25T01:23:08;101613.22;;;20.84;nan
42111;BME280;27766;52.174;5.456;2022-08-25T01:28:23;101617.63;;;20.82;nan
42111;BME280;27766;52.174;5.456;2022-08-25T01:30:52;101620.28;;;20.80;nan
42111;BME280;27766;52.174;5.456;2022-08-25T01:33:22;101613.34;;;20.73;nan
42111;BME280;27766;52.174;5.456;2022-08-25T01:35:52;101624.75;;;20.74;nan
42111;BME280;27766;52.174;5.456;2022-08-25T01:38:22;101619.47;;;20.72;nan
42111;BME280;27766;52.174;5.456;2022-08-25T01:40:52;101623.91;;;20.68;nan
42111;BME280;27766;52.174;5.456;2022-08-25T01:43:36;101616.06;;;20.64;nan
42111;BME280;27766;52.174;5.456;2022-08-25T01:46:03;101616.06;;;20.62;nan
42111;BME280;27766;52.174;5.456;2022-08-25T01:48:31;101616.09;;;20.61;nan
42111;BME280;27766;52.174;5.456;2022-08-25T01:50:59;101620.53;;;20.55;nan
42111;BME280;27766;52.174;5.456;2022-08-25T01:53:28;101613.59;;;20.50;nan
42111;BME280;27766;52.174;5.456;2022-08-25T01:55:58;101616.31;;;20.42;nan
42111;BME280;27766;52.174;5.456;2022-08-25T01:58:34;101599.78;;;20.29;nan
42111;BME280;27766;52.174;5.456;2022-08-25T02:01:04;101612.06;;;20.27;nan
42111;BME280;27766;52.174;5.456;2022-08-25T02:03:32;101606.00;;;20.22;nan
42111;BME280;27766;52.174;5.456;2022-08-25T02:05:59;101606.03;;;20.16;nan
42111;BME280;27766;52.174;5.456;2022-08-25T02:08:27;101607.84;;;20.14;nan
42111;BME280;27766;52.174;5.456;2022-08-25T02:10:56;101604.31;;;20.15;nan
42111;BME280;27766;52.174;5.456;2022-08-25T02:13:25;101605.22;;;20.14;nan
42111;BME280;27766;52.174;5.456;2022-08-25T02:16:01;101605.22;;;20.14;nan
42111;BME280;27766;52.174;5.456;2022-08-25T02:18:31;101606.13;;;20.11;nan
42111;BME280;27766;52.174;5.456;2022-08-25T02:21:01;101610.47;;;20.14;nan
42111;BME280;27766;52.174;5.456;2022-08-25T02:23:29;101605.19;;;20.15;nan
42111;BME280;27766;52.174;5.456;2022-08-25T02:25:57;101607.78;;;20.17;nan
42111;BME280;27766;52.174;5.456;2022-08-25T02:28:26;101615.59;;;20.23;nan
42111;BME280;27766;52.174;5.456;2022-08-25T02:30:53;101610.31;;;20.26;nan
42111;BME280;27766;52.174;5.456;2022-08-25T02:33:26;101611.16;;;20.30;nan
42111;BME280;27766;52.174;5.456;2022-08-25T02:35:56;101603.25;;;20.31;nan
42111;BME280;27766;52.174;5.456;2022-08-25T02:38:26;101606.69;;;20.38;nan
42111;BME280;27766;52.174;5.456;2022-08-25T02:40:57;101611.94;;;20.41;nan
42111;BME280;27766;52.174;5.456;2022-08-25T02:43:27;101604.03;;;20.43;nan
42111;BME280;27766;52.174;5.456;2022-08-25T02:45:55;101598.75;;;20.46;nan
42111;BME280;27766;52.174;5.456;2022-08-25T02:48:22;101604.84;;;20.49;nan
42111;BME280;27766;52.174;5.456;2022-08-25T02:50:52;101595.22;;;20.47;nan
42111;BME280;27766;52.174;5.456;2022-08-25T02:53:22;101597.81;;;20.50;nan
42111;BME280;27766;52.174;5.456;2022-08-25T02:55:52;101601.28;;;20.53;nan
42111;BME280;27766;52.174;5.456;2022-08-25T02:58:23;101593.38;;;20.53;nan
42111;BME280;27766;52.174;5.456;2022-08-25T03:00:52;101587.25;;;20.54;nan
42111;BME280;27766;52.174;5.456;2022-08-25T03:03:20;101591.56;;;20.59;nan
42111;BME280;27766;52.174;5.456;2022-08-25T03:05:49;101599.47;;;20.60;nan
42111;BME280;27766;52.174;5.456;2022-08-25T03:08:17;101587.16;;;20.61;nan
42111;BME280;27766;52.174;5.456;2022-08-25T03:10:44;101580.16;;;20.61;nan
42111;BME280;27766;52.174;5.456;2022-08-25T03:13:11;101587.09;;;20.67;nan
42111;BME280;27766;52.174;5.456;2022-08-25T03:15:39;101581.81;;;20.70;nan
42111;BME280;27766;52.174;5.456;2022-08-25T03:18:08;101577.44;;;20.69;nan
42111;BME280;27766;52.174;5.456;2022-08-25T03:20:38;101573.00;;;20.74;nan
42111;BME280;27766;52.174;5.456;2022-08-25T03:23:06;101573.88;;;20.71;nan
42111;BME280;27766;52.174;5.456;2022-08-25T03:25:33;101573.00;;;20.74;nan
42111;BME280;27766;52.174;5.456;2022-08-25T03:28:19;101572.13;;;20.72;nan
42111;BME280;27766;52.174;5.456;2022-08-25T03:30:46;101571.25;;;20.73;nan
42111;BME280;27766;52.174;5.456;2022-08-25T03:33:14;101566.88;;;20.74;nan
42111;BME280;27766;52.174;5.456;2022-08-25T03:35:41;101570.38;;;20.74;nan
42111;BME280;27766;52.174;5.456;2022-08-25T03:38:08;101562.50;;;20.73;nan
42111;BME280;27766;52.174;5.456;2022-08-25T03:40:36;101565.09;;;20.74;nan
42111;BME280;27766;52.174;5.456;2022-08-25T03:43:04;101558.09;;;20.73;nan
42111;BME280;27766;52.174;5.456;2022-08-25T03:45:31;101552.00;;;20.68;nan
42111;BME280;27766;52.174;5.456;2022-08-25T03:48:01;101556.34;;;20.70;nan
42111;BME280;27766;52.174;5.456;2022-08-25T03:50:29;101541.59;;;20.60;nan
42111;BME280;27766;52.174;5.456;2022-08-25T03:52:57;101545.94;;;20.63;nan
42111;BME280;27766;52.174;5.456;2022-08-25T03:55:25;101542.47;;;20.61;nan
42111;BME280;27766;52.174;5.456;2022-08-25T03:57:53;101553.00;;;20.58;nan
42111;BME280;27766;52.174;5.456;2022-08-25T04:00:23;101542.53;;;20.54;nan
42111;BME280;27766;52.174;5.456;2022-08-25T04:02:52;101548.72;;;20.52;nan
42111;BME280;27766;52.174;5.456;2022-08-25T04:05:19;101547.81;;;20.51;nan
42111;BME280;27766;52.174;5.456;2022-08-25T04:07:49;101540.88;;;20.47;nan
42111;BME280;27766;52.174;5.456;2022-08-25T04:10:16;101547.03;;;20.46;nan
42111;BME280;27766;52.174;5.456;2022-08-25T04:12:43;101536.53;;;20.43;nan
42111;BME280;27766;52.174;5.456;2022-08-25T04:15:11;101546.16;;;20.44;nan
42111;BME280;27766;52.174;5.456;2022-08-25T04:17:39;101545.34;;;20.42;nan
42111;BME280;27766;52.174;5.456;2022-08-25T04:20:08;101542.72;;;20.39;nan
42111;BME280;27766;52.174;5.456;2022-08-25T04:22:36;101537.50;;;20.36;nan
42111;BME280;27766;52.174;5.456;2022-08-25T04:25:06;101532.28;;;20.33;nan
42111;BME280;27766;52.174;5.456;2022-08-25T04:27:35;101536.69;;;20.31;nan
42111;BME280;27766;52.174;5.456;2022-08-25T04:30:04;101532.38;;;20.27;nan
42111;BME280;27766;52.174;5.456;2022-08-25T04:32:32;101514.94;;;20.18;nan
42111;BME280;27766;52.174;5.456;2022-08-25T04:35:01;101527.16;;;20.20;nan
42111;BME280;27766;52.174;5.456;2022-08-25T04:37:32;101524.59;;;20.17;nan
42111;BME280;27766;52.174;5.456;2022-08-25T04:39:59;101525.47;;;20.16;nan
42111;BME280;27766;52.174;5.456;2022-08-25T04:42:26;101526.38;;;20.14;nan
42111;BME280;27766;52.174;5.456;2022-08-25T04:44:53;101530.75;;;20.13;nan
42111;BME280;27766;52.174;5.456;2022-08-25T04:47:23;101527.31;;;20.08;nan
42111;BME280;27766;52.174;5.456;2022-08-25T04:49:52;101530.78;;;20.08;nan
42111;BME280;27766;52.174;5.456;2022-08-25T04:52:20;101512.50;;;19.98;nan
42111;BME280;27766;52.174;5.456;2022-08-25T04:54:49;101537.84;;;20.05;nan
42111;BME280;27766;52.174;5.456;2022-08-25T04:57:16;101522.97;;;20.02;nan
42111;BME280;27766;52.174;5.456;2022-08-25T04:59:44;101537.84;;;20.05;nan
42111;BME280;27766;52.174;5.456;2022-08-25T05:02:11;101531.69;;;20.06;nan
42111;BME280;27766;52.174;5.456;2022-08-25T05:04:38;101534.34;;;20.07;nan
42111;BME280;27766;52.174;5.456;2022-08-25T05:07:06;101533.41;;;20.10;nan
42111;BME280;27766;52.174;5.456;2022-08-25T05:09:33;101533.41;;;20.12;nan
42111;BME280;27766;52.174;5.456;2022-08-25T05:12:03;101535.09;;;20.16;nan
42111;BME280;27766;52.174;5.456;2022-08-25T05:14:31;101532.47;;;20.17;nan
42111;BME280;27766;52.174;5.456;2022-08-25T05:17:00;101531.56;;;20.20;nan
42111;BME280;27766;52.174;5.456;2022-08-25T05:19:27;101535.84;;;20.27;nan
42111;BME280;27766;52.174;5.456;2022-08-25T05:21:57;101526.22;;;20.26;nan
42111;BME280;27766;52.174;5.456;2022-08-25T05:24:27;101538.38;;;20.35;nan
42111;BME280;27766;52.174;5.456;2022-08-25T05:26:56;101540.97;;;20.39;nan
42111;BME280;27766;52.174;5.456;2022-08-25T05:29:24;101534.78;;;20.44;nan
42111;BME280;27766;52.174;5.456;2022-08-25T05:31:53;101543.47;;;20.49;nan
42111;BME280;27766;52.174;5.456;2022-08-25T05:34:21;101538.25;;;20.47;nan
42111;BME280;27766;52.174;5.456;2022-08-25T05:37:00;101543.44;;;20.50;nan
42111;BME280;27766;52.174;5.456;2022-08-25T05:39:29;101549.56;;;20.52;nan
42111;BME280;27766;52.174;5.456;2022-08-25T05:42:01;101553.91;;;20.56;nan
42111;BME280;27766;52.174;5.456;2022-08-25T05:44:31;101543.41;;;20.55;nan
42111;BME280;27766;52.174;5.456;2022-08-25T05:46:59;101556.50;;;20.61;nan
42111;BME280;27766;52.174;5.456;2022-08-25T05:49:26;101556.34;;;20.70;nan
42111;BME280;27766;52.174;5.456;2022-08-25T05:51:53;101561.50;;;20.81;nan
42111;BME280;27766;52.174;5.456;2022-08-25T05:54:27;101553.56;;;20.86;nan
42111;BME280;27766;52.174;5.456;2022-08-25T05:56:56;101564.00;;;20.92;nan
42111;BME280;27766;52.174;5.456;2022-08-25T05:59:23;101559.56;;;20.96;nan
42111;BME280;27766;52.174;5.456;2022-08-25T06:01:53;101553.41;;;20.98;nan
42111;BME280;27766;52.174;5.456;2022-08-25T06:04:39;101554.22;;;21.00;nan
42111;BME280;27766;52.174;5.456;2022-08-25T06:07:09;101555.13;;;21.01;nan
42111;BME280;27766;52.174;5.456;2022-08-25T06:09:38;101547.22;;;21.01;nan
42111;BME280;27766;52.174;5.456;2022-08-25T06:12:06;101556.84;;;21.03;nan
42111;BME280;27766;52.174;5.456;2022-08-25T06:14:34;101553.25;;;21.09;nan
42111;BME280;27766;52.174;5.456;2022-08-25T06:17:04;101547.00;;;21.16;nan
42111;BME280;27766;52.174;5.456;2022-08-25T06:19:31;101543.31;;;21.28;nan
42111;BME280;27766;52.174;5.456;2022-08-25T06:22:01;101565.78;;;21.49;nan
42111;BME280;27766;52.174;5.456;2022-08-25T06:24:31;101562.13;;;21.60;nan
42111;BME280;27766;52.174;5.456;2022-08-25T06:27:02;101575.16;;;21.69;nan
42111;BME280;27766;52.174;5.456;2022-08-25T06:29:30;101562.00;;;21.69;nan
42111;BME280;27766;52.174;5.456;2022-08-25T06:31:57;101562.88;;;21.68;nan
42111;BME280;27766;52.174;5.456;2022-08-25T06:34:27;101559.41;;;21.66;nan
42111;BME280;27766;52.174;5.456;2022-08-25T06:36:56;101566.28;;;21.73;nan
42111;BME280;27766;52.174;5.456;2022-08-25T06:39:24;101560.13;;;21.74;nan
42111;BME280;27766;52.174;5.456;2022-08-25T06:41:56;101553.88;;;21.81;nan
42111;BME280;27766;52.174;5.456;2022-08-25T06:44:24;101553.66;;;21.92;nan
42111;BME280;27766;52.174;5.456;2022-08-25T06:46:52;101557.69;;;22.13;nan
42111;BME280;27766;52.174;5.456;2022-08-25T06:49:20;101554.03;;;22.21;nan
42111;BME280;27766;52.174;5.456;2022-08-25T06:51:52;101557.50;;;22.23;nan
42111;BME280;27766;52.174;5.456;2022-08-25T06:54:20;101554.81;;;22.26;nan
42111;BME280;27766;52.174;5.456;2022-08-25T06:56:48;101544.19;;;22.29;nan
42111;BME280;27766;52.174;5.456;2022-08-25T06:59:16;101552.59;;;22.51;nan
42111;BME280;27766;52.174;5.456;2022-08-25T07:01:44;101552.97;;;22.73;nan
42111;BME280;27766;52.174;5.456;2022-08-25T07:04:11;101556.03;;;22.96;nan
42111;BME280;27766;52.174;5.456;2022-08-25T07:06:40;101545.88;;;23.18;nan
42111;BME280;27766;52.174;5.456;2022-08-25T07:09:08;101551.63;;;23.35;nan
42111;BME280;27766;52.174;5.456;2022-08-25T07:11:40;101548.47;;;23.55;nan
42111;BME280;27766;52.174;5.456;2022-08-25T07:14:09;101548.81;;;23.78;nan
42111;BME280;27766;52.174;5.456;2022-08-25T07:16:38;101545.78;;;23.93;nan
42111;BME280;27766;52.174;5.456;2022-08-25T07:19:08;101558.38;;;24.16;nan
42111;BME280;27766;52.174;5.456;2022-08-25T07:21:40;101557.16;;;24.28;nan
42111;BME280;27766;52.174;5.456;2022-08-25T07:24:10;101561.97;;;24.45;nan
42111;BME280;27766;52.174;5.456;2022-08-25T07:26:40;101544.09;;;24.54;nan
42111;BME280;27766;52.174;5.456;2022-08-25T07:29:11;101566.34;;;24.78;nan
42111;BME280;27766;52.174;5.456;2022-08-25T07:31:39;101562.47;;;24.90;nan
42111;BME280;27766;52.174;5.456;2022-08-25T07:34:06;101566.59;;;24.99;nan
42111;BME280;27766;52.174;5.456;2022-08-25T07:36:53;101561.94;;;25.07;nan
42111;BME280;27766;52.174;5.456;2022-08-25T07:39:24;101555.63;;;25.11;nan
42111;BME280;27766;52.174;5.456;2022-08-25T07:41:53;101550.16;;;25.17;nan
42111;BME280;27766;52.174;5.456;2022-08-25T07:44:24;101548.97;;;25.26;nan
42111;BME280;27766;52.174;5.456;2022-08-25T07:47:12;101551.22;;;25.40;nan
42111;BME280;27766;52.174;5.456;2022-08-25T07:49:41;101553.50;;;25.51;nan
42111;BME280;27766;52.174;5.456;2022-08-25T07:52:09;101557.72;;;25.56;nan
42111;BME280;27766;52.174;5.456;2022-08-25T07:54:37;101554.25;;;25.54;nan
42111;BME280;27766;52.174;5.456;2022-08-25T07:57:07;101551.47;;;25.59;nan
42111;BME280;27766;52.174;5.456;2022-08-25T07:59:40;101555.66;;;25.65;nan
42111;BME280;27766;52.174;5.456;2022-08-25T08:02:10;101542.16;;;25.72;nan
42111;BME280;27766;52.174;5.456;2022-08-25T08:04:47;101544.53;;;25.80;nan
42111;BME280;27766;52.174;5.456;2022-08-25T08:07:20;101545.09;;;25.90;nan
42111;BME280;27766;52.174;5.456;2022-08-25T08:09:50;101546.66;;;25.96;nan
42111;BME280;27766;52.174;5.456;2022-08-25T08:12:32;101541.13;;;26.02;nan
42111;BME280;27766;52.174;5.456;2022-08-25T08:15:00;101538.47;;;26.02;nan
42111;BME280;27766;52.174;5.456;2022-08-25T08:17:27;101529.44;;;26.09;nan
42111;BME280;27766;52.174;5.456;2022-08-25T08:19:55;101529.06;;;26.18;nan
42111;BME280;27766;52.174;5.456;2022-08-25T08:22:22;101531.22;;;26.32;nan
42111;BME280;27766;52.174;5.456;2022-08-25T08:24:49;101533.47;;;26.43;nan
42111;BME280;27766;52.174;5.456;2022-08-25T08:27:23;101537.44;;;26.55;nan
42111;BME280;27766;52.174;5.456;2022-08-25T08:29:53;101539.84;;;26.61;nan
42111;BME280;27766;52.174;5.456;2022-08-25T08:32:22;101536.97;;;26.67;nan
42111;BME280;27766;52.174;5.456;2022-08-25T08:35:01;101529.56;;;26.77;nan
42111;BME280;27766;52.174;5.456;2022-08-25T08:37:29;101528.38;;;26.84;nan
42111;BME280;27766;52.174;5.456;2022-08-25T08:39:57;101526.22;;;26.94;nan
42111;BME280;27766;52.174;5.456;2022-08-25T08:42:53;101531.28;;;27.00;nan
42111;BME280;27766;52.174;5.456;2022-08-25T08:45:36;101522.28;;;27.05;nan
42111;BME280;27766;52.174;5.456;2022-08-25T08:53:55;101520.13;;;27.35;nan
42111;BME280;27766;52.174;5.456;2022-08-25T08:56:41;101505.81;;;27.39;nan
42111;BME280;27766;52.174;5.456;2022-08-25T08:59:25;101512.28;;;27.54;nan
42111;BME280;27766;52.174;5.456;2022-08-25T09:01:58;101509.34;;;27.60;nan
42111;BME280;27766;52.174;5.456;2022-08-25T09:07:13;101510.22;;;27.82;nan
42111;BME280;27766;52.174;5.456;2022-08-25T09:09:42;101503.75;;;27.87;nan
42111;BME280;27766;52.174;5.456;2022-08-25T09:18:41;101508.28;;;28.25;nan
42111;BME280;27766;52.174;5.456;2022-08-25T09:21:27;101512.97;;;28.39;nan
42111;BME280;27766;52.174;5.456;2022-08-25T09:27:08;101512.84;;;28.61;nan
42111;BME280;27766;52.174;5.456;2022-08-25T09:30:02;101499.09;;;28.70;nan
42111;BME280;27766;52.174;5.456;2022-08-25T09:32:39;101495.88;;;28.83;nan
42111;BME280;27766;52.174;5.456;2022-08-25T09:35:31;101494.13;;;28.82;nan
42111;BME280;27766;52.174;5.456;2022-08-25T09:38:04;101505.06;;;28.95;nan
42111;BME280;27766;52.174;5.456;2022-08-25T09:40:46;101505.38;;;29.06;nan
42111;BME280;27766;52.174;5.456;2022-08-25T09:43:39;101502.09;;;29.18;nan
42111;BME280;27766;52.174;5.456;2022-08-25T09:48:51;101485.13;;;29.39;nan
42111;BME280;27766;52.174;5.456;2022-08-25T09:51:31;101491.69;;;29.49;nan
42111;BME280;27766;52.174;5.456;2022-08-25T09:56:58;101483.00;;;29.63;nan
42111;BME280;27766;52.174;5.456;2022-08-25T09:59:33;101473.34;;;29.60;nan
42111;BME280;27766;52.174;5.456;2022-08-25T10:02:24;101471.16;;;29.68;nan
42111;BME280;27766;52.174;5.456;2022-08-25T10:04:54;101470.19;;;29.69;nan
42111;BME280;27766;52.174;5.456;2022-08-25T10:07:27;101463.38;;;29.64;nan
42111;BME280;27766;52.174;5.456;2022-08-25T10:10:00;101476.25;;;29.73;nan
42111;BME280;27766;52.174;5.456;2022-08-25T10:12:34;101466.00;;;29.81;nan
42111;BME280;27766;52.174;5.456;2022-08-25T10:15:19;101459.66;;;29.84;nan
42111;BME280;27766;52.174;5.456;2022-08-25T10:18:21;101461.34;;;29.85;nan
42111;BME280;27766;52.174;5.456;2022-08-25T10:23:57;101455.22;;;30.00;nan
42111;BME280;27766;52.174;5.456;2022-08-25T10:26:40;101448.19;;;29.99;nan
42111;BME280;27766;52.174;5.456;2022-08-25T10:32:15;101435.84;;;29.97;nan
42111;BME280;27766;52.174;5.456;2022-08-25T10:34:49;101433.56;;;30.07;nan
42111;BME280;27766;52.174;5.456;2022-08-25T10:37:33;101432.59;;;30.08;nan
42111;BME280;27766;52.174;5.456;2022-08-25T10:45:48;101422.69;;;30.10;nan
42111;BME280;27766;52.174;5.456;2022-08-25T10:48:45;101422.19;;;30.19;nan
42111;BME280;27766;52.174;5.456;2022-08-25T10:51:30;101417.66;;;30.21;nan
42111;BME280;27766;52.174;5.456;2022-08-25T10:57:12;101394.38;;;30.23;nan
42111;BME280;27766;52.174;5.456;2022-08-25T11:03:08;101400.84;;;30.51;nan
42111;BME280;27766;52.174;5.456;2022-08-25T11:05:46;101386.19;;;30.58;nan
42111;BME280;27766;52.174;5.456;2022-08-25T11:13:54;101384.63;;;30.70;nan
42111;BME280;27766;52.174;5.456;2022-08-25T11:19:15;101390.97;;;30.84;nan
42111;BME280;27766;52.174;5.456;2022-08-25T11:27:13;101380.84;;;30.89;nan
42111;BME280;27766;52.174;5.456;2022-08-25T11:29:55;101371.13;;;30.88;nan
42111;BME280;27766;52.174;5.456;2022-08-25T11:32:25;101370.75;;;30.94;nan
42111;BME280;27766;52.174;5.456;2022-08-25T11:34:53;101376.69;;;30.99;nan
42111;BME280;27766;52.174;5.456;2022-08-25T11:37:26;101385.19;;;31.06;nan
42111;BME280;27766;52.174;5.456;2022-08-25T11:48:20;101367.50;;;31.34;nan
42111;BME280;27766;52.174;5.456;2022-08-25T11:51:26;101366.94;;;31.43;nan
42111;BME280;27766;52.174;5.456;2022-08-25T11:54:26;101358.81;;;31.59;nan
42111;BME280;27766;52.174;5.456;2022-08-25T11:57:02;101358.16;;;31.70;nan
42111;BME280;27766;52.174;5.456;2022-08-25T12:02:33;101340.31;;;31.70;nan
42111;BME280;27766;52.174;5.456;2022-08-25T12:17:41;101350.16;;;31.97;nan
42111;BME280;27766;52.174;5.456;2022-08-25T12:20:11;101357.91;;;32.02;nan
42111;BME280;27766;52.174;5.456;2022-08-25T12:22:41;101361.75;;;31.98;nan
42111;BME280;27766;52.174;5.456;2022-08-25T12:25:26;101360.97;;;31.96;nan
42111;BME280;27766;52.174;5.456;2022-08-25T12:28:25;101358.22;;;31.83;nan
42111;BME280;27766;52.174;5.456;2022-08-25T12:31:07;101353.00;;;31.67;nan
42111;BME280;27766;52.174;5.456;2022-08-25T12:34:05;101353.56;;;31.57;nan
42111;BME280;27766;52.174;5.456;2022-08-25T12:36:37;101344.66;;;31.42;nan
42111;BME280;27766;52.174;5.456;2022-08-25T12:39:30;101345.16;;;31.35;nan
42111;BME280;27766;52.174;5.456;2022-08-25T12:42:02;101341.91;;;31.30;nan
42111;BME280;27766;52.174;5.456;2022-08-25T12:44:36;101340.59;;;31.37;nan
42111;BME280;27766;52.174;5.456;2022-08-25T12:47:26;101332.16;;;31.57;nan
42111;BME280;27766;52.174;5.456;2022-08-25T12:50:24;101332.50;;;31.95;nan
42111;BME280;27766;52.174;5.456;2022-08-25T12:52:54;101337.59;;;32.27;nan
42111;BME280;27766;52.174;5.456;2022-08-25T12:55:27;101336.94;;;32.63;nan
42111;BME280;27766;52.174;5.456;2022-08-25T12:57:59;101327.81;;;32.93;nan
42111;BME280;27766;52.174;5.456;2022-08-25T13:00:33;101325.66;;;33.11;nan
42111;BME280;27766;52.174;5.456;2022-08-25T13:12:08;101319.19;;;33.53;nan
42111;BME280;27766;52.174;5.456;2022-08-25T13:14:41;101327.13;;;33.54;nan
42111;BME280;27766;52.174;5.456;2022-08-25T13:17:10;101318.78;;;33.83;nan
42111;BME280;27766;52.174;5.456;2022-08-25T13:19:37;101303.50;;;33.97;nan
42111;BME280;27766;52.174;5.456;2022-08-25T13:22:13;101304.16;;;34.24;nan
42111;BME280;27766;52.174;5.456;2022-08-25T13:24:44;101312.03;;;34.39;nan
42111;BME280;27766;52.174;5.456;2022-08-25T13:27:23;101308.00;;;34.45;nan
42111;BME280;27766;52.174;5.456;2022-08-25T13:29:57;101302.97;;;34.76;nan
42111;BME280;27766;52.174;5.456;2022-08-25T13:32:35;101298.13;;;34.92;nan
42111;BME280;27766;52.174;5.456;2022-08-25T13:35:19;101299.47;;;35.66;nan
42111;BME280;27766;52.174;5.456;2022-08-25T13:37:47;101298.13;;;36.37;nan
42111;BME280;27766;52.174;5.456;2022-08-25T13:43:04;101301.91;;;38.10;nan
42111;BME280;27766;52.174;5.456;2022-08-25T13:45:43;101286.53;;;38.11;nan
42111;BME280;27766;52.174;5.456;2022-08-25T13:48:13;101290.03;;;38.70;nan
42111;BME280;27766;52.174;5.456;2022-08-25T14:29:21;101262.72;;;37.05;nan
42111;BME280;27766;52.174;5.456;2022-08-25T14:31:49;101269.38;;;37.51;nan
42111;BME280;27766;52.174;5.456;2022-08-25T14:34:22;101262.59;;;37.67;nan
42111;BME280;27766;52.174;5.456;2022-08-25T14:36:57;101262.75;;;38.24;nan
42111;BME280;27766;52.174;5.456;2022-08-25T14:39:27;101251.75;;;39.40;nan
42111;BME280;27766;52.174;5.456;2022-08-25T14:41:56;101265.41;;;40.21;nan
42111;BME280;27766;52.174;5.456;2022-08-25T14:44:23;101259.66;;;40.42;nan
42111;BME280;27766;52.174;5.456;2022-08-25T14:46:53;101251.69;;;38.94;nan
42111;BME280;27766;52.174;5.456;2022-08-25T15:02:11;101245.44;;;37.17;nan
42111;BME280;27766;52.174;5.456;2022-08-25T15:04:40;101246.38;;;37.57;nan
42111;BME280;27766;52.174;5.456;2022-08-25T15:07:10;101239.63;;;38.31;nan
42111;BME280;27766;52.174;5.456;2022-08-25T15:09:58;101238.78;;;38.11;nan
42111;BME280;27766;52.174;5.456;2022-08-25T15:12:26;101234.72;;;38.55;nan
42111;BME280;27766;52.174;5.456;2022-08-25T15:15:12;101242.63;;;38.76;nan
42111;BME280;27766;52.174;5.456;2022-08-25T15:17:40;101247.44;;;37.95;nan
42111;BME280;27766;52.174;5.456;2022-08-25T15:20:08;101231.72;;;36.89;nan
42111;BME280;27766;52.174;5.456;2022-08-25T15:22:36;101239.41;;;36.31;nan
42111;BME280;27766;52.174;5.456;2022-08-25T15:25:03;101244.34;;;35.49;nan
42111;BME280;27766;52.174;5.456;2022-08-25T15:27:31;101235.59;;;34.90;nan
42111;BME280;27766;52.174;5.456;2022-08-25T15:29:59;101242.88;;;34.30;nan
42111;BME280;27766;52.174;5.456;2022-08-25T15:32:27;101221.88;;;33.51;nan
42111;BME280;27766;52.174;5.456;2022-08-25T15:34:54;101233.88;;;32.95;nan
42111;BME280;27766;52.174;5.456;2022-08-25T15:37:22;101240.13;;;32.82;nan
42111;BME280;27766;52.174;5.456;2022-08-25T15:39:50;101228.50;;;32.95;nan
42111;BME280;27766;52.174;5.456;2022-08-25T15:42:17;101229.78;;;32.76;nan
42111;BME280;27766;52.174;5.456;2022-08-25T15:44:45;101233.44;;;32.75;nan
42111;BME280;27766;52.174;5.456;2022-08-25T15:47:20;101233.84;;;32.69;nan
42111;BME280;27766;52.174;5.456;2022-08-25T15:49:49;101218.94;;;32.52;nan
42111;BME280;27766;52.174;5.456;2022-08-25T15:52:17;101224.66;;;32.73;nan
42111;BME280;27766;52.174;5.456;2022-08-25T15:54:47;101214.88;;;32.72;nan
42111;BME280;27766;52.174;5.456;2022-08-25T15:57:14;101226.38;;;32.74;nan
42111;BME280;27766;52.174;5.456;2022-08-25T15:59:51;101207.91;;;32.57;nan
42111;BME280;27766;52.174;5.456;2022-08-25T16:02:26;101215.00;;;32.58;nan